createdAt,value
2019-04-16T04:00:53.423Z,72.38
2019-04-16T04:01:53.291Z,72.85
2019-04-16T04:03:45.970Z,72.38
2019-04-16T04:04:45.839Z,72.09
2019-04-16T04:06:39.505Z,72.75
2019-04-16T04:07:38.398Z,72.56
2019-04-16T04:09:31.052Z,71.52
2019-04-16T04:10:34.318Z,71.90
2019-04-16T04:12:23.618Z,72.56
2019-04-16T04:13:23.490Z,72.66
2019-04-16T04:15:16.155Z,72.85
2019-04-16T04:16:16.051Z,73.14
2019-04-16T04:18:11.778Z,73.23
2019-04-16T04:19:08.635Z,73.23
2019-04-16T04:21:01.255Z,72.47
2019-04-16T04:22:01.148Z,73.14
2019-04-16T04:23:53.830Z,73.52
2019-04-16T04:24:53.697Z,73.71
2019-04-16T04:26:46.363Z,73.52
2019-04-16T04:27:47.334Z,73.33
2019-04-16T04:29:39.007Z,73.99
2019-04-16T04:30:38.799Z,73.80
2019-04-16T04:32:32.457Z,73.61
2019-04-16T04:33:31.349Z,73.42
2019-04-16T04:35:24.012Z,73.71
2019-04-16T04:36:27.171Z,73.42
2019-04-16T04:38:16.576Z,74.27
2019-04-16T04:39:16.453Z,73.90
2019-04-16T04:41:09.107Z,74.08
2019-04-16T04:42:09.024Z,74.08
2019-04-16T04:44:04.311Z,74.18
2019-04-16T04:45:01.552Z,74.56
2019-04-16T04:46:54.206Z,74.56
2019-04-16T04:47:54.104Z,74.66
2019-04-16T04:49:46.788Z,74.85
2019-04-16T04:50:46.638Z,74.27
2019-04-16T04:52:39.309Z,74.18
2019-04-16T04:53:39.195Z,74.47
2019-04-16T04:55:31.880Z,74.27
2019-04-16T04:56:31.746Z,74.27
2019-04-16T04:58:24.411Z,74.08
2019-04-16T04:59:24.295Z,73.90
2019-04-16T05:01:17.130Z,74.47
2019-04-16T05:02:16.945Z,74.37
2019-04-16T05:04:09.544Z,75.42
2019-04-16T05:05:09.403Z,74.47
2019-04-16T05:07:04.712Z,73.71
2019-04-16T05:08:01.953Z,74.56
2019-04-16T05:09:54.636Z,74.08
2019-04-16T05:10:59.876Z,74.18
2019-04-16T05:12:47.166Z,74.27
2019-04-16T05:13:47.059Z,73.99
2019-04-16T05:15:39.729Z,74.08
2019-04-16T05:16:39.600Z,74.27
2019-04-16T05:18:32.267Z,75.04
2019-04-16T05:19:32.148Z,75.04
2019-04-16T05:21:24.829Z,73.99
2019-04-16T05:22:24.709Z,73.61
2019-04-16T05:24:17.444Z,73.71
2019-04-16T05:25:17.250Z,73.42
2019-04-16T05:27:10.249Z,73.71
2019-04-16T05:28:12.116Z,74.56
2019-04-16T05:30:02.480Z,73.80
2019-04-16T05:31:02.352Z,73.33
2019-04-16T05:32:55.040Z,73.61
2019-04-16T05:33:54.895Z,73.42
2019-04-16T05:35:47.566Z,73.42
2019-04-16T05:36:48.111Z,73.14
2019-04-16T05:38:40.103Z,73.14
2019-04-16T05:39:39.994Z,72.99
2019-04-16T05:41:32.673Z,72.89
2019-04-16T05:42:32.542Z,72.60
2019-04-16T05:44:25.205Z,72.89
2019-04-16T05:45:25.088Z,72.41
2019-04-16T05:47:18.280Z,71.81
2019-04-16T05:48:18.609Z,71.75
2019-04-16T05:50:10.299Z,72.41
2019-04-16T05:51:10.184Z,71.75
2019-04-16T05:53:05.440Z,71.46
2019-04-16T05:54:02.732Z,71.75
2019-04-16T05:55:57.396Z,70.89
2019-04-16T05:56:55.675Z,70.99
2019-04-16T05:58:47.963Z,71.18
2019-04-16T05:59:47.923Z,71.46
2019-04-16T06:01:42.356Z,69.94
2019-04-16T06:02:40.408Z,70.70
2019-04-16T06:04:33.060Z,69.94
2019-04-16T06:05:33.021Z,70.42
2019-04-16T06:07:25.799Z,69.94
2019-04-16T06:08:25.502Z,70.13
2019-04-16T06:10:19.193Z,69.85
2019-04-16T06:11:28.139Z,69.88
2019-04-16T06:13:12.626Z,69.79
2019-04-16T06:14:17.004Z,70.36
2019-04-16T06:16:03.767Z,69.60
2019-04-16T06:17:03.654Z,69.69
2019-04-16T06:18:56.332Z,69.79
2019-04-16T06:19:56.203Z,68.36
2019-04-16T06:21:48.906Z,67.79
2019-04-16T06:22:48.791Z,68.46
2019-04-16T06:24:41.434Z,68.55
2019-04-16T06:25:42.161Z,67.32
2019-04-16T06:27:33.998Z,66.94
2019-04-16T06:28:33.893Z,66.94
2019-04-16T06:30:26.602Z,66.59
2019-04-16T06:31:26.450Z,66.49
2019-04-16T06:33:19.211Z,66.39
2019-04-16T06:34:19.007Z,66.39
2019-04-16T06:36:11.688Z,66.02
2019-04-16T06:37:11.611Z,66.49
2019-04-16T06:39:04.391Z,66.49
2019-04-16T06:40:04.385Z,66.20
2019-04-16T06:41:57.083Z,65.92
2019-04-16T06:42:56.766Z,66.11
2019-04-16T06:44:49.436Z,66.39
2019-04-16T06:45:49.311Z,66.11
2019-04-16T06:47:42.787Z,65.29
2019-04-16T06:48:42.513Z,65.00
2019-04-16T06:50:39.635Z,64.05
2019-04-16T06:51:34.581Z,64.05
2019-04-16T06:53:30.060Z,63.20
2019-04-16T06:54:31.878Z,62.56
2019-04-16T06:56:20.892Z,59.76
2019-04-16T06:57:20.171Z,56.13
2019-04-16T06:59:16.538Z,48.71
2019-04-16T07:00:12.739Z,45.76
2019-04-16T07:02:07.675Z,42.17
2019-04-16T07:03:05.332Z,41.16
2019-04-16T07:04:58.378Z,39.04
2019-04-16T07:05:57.876Z,39.08
2019-04-16T07:07:50.591Z,37.57
2019-04-16T07:08:50.829Z,37.01
2019-04-16T07:10:44.614Z,36.24
2019-04-16T07:11:53.712Z,36.07
2019-04-16T07:13:35.817Z,35.50
2019-04-16T07:14:36.138Z,34.25
2019-04-16T07:16:29.153Z,33.79
2019-04-16T07:17:33.290Z,33.21
2019-04-16T07:19:21.108Z,33.02
2019-04-16T07:20:20.963Z,32.92
2019-04-16T07:22:13.788Z,32.82
2019-04-16T07:23:13.684Z,32.71
2019-04-16T07:25:06.690Z,33.40
2019-04-16T07:26:06.325Z,32.64
2019-04-16T07:27:59.023Z,32.17
2019-04-16T07:28:59.938Z,31.90
2019-04-16T07:30:51.993Z,31.60
2019-04-16T07:31:53.259Z,31.90
2019-04-16T07:33:44.296Z,31.62
2019-04-16T07:34:44.227Z,30.76
2019-04-16T07:36:37.096Z,30.56
2019-04-16T07:37:36.923Z,30.55
2019-04-16T07:39:29.954Z,31.60
2019-04-16T07:40:29.567Z,31.51
2019-04-16T07:42:22.828Z,31.51
2019-04-16T07:43:22.159Z,30.76
2019-04-16T07:45:14.868Z,30.58
2019-04-16T07:46:14.728Z,29.79
2019-04-16T07:48:07.621Z,30.35
2019-04-16T07:49:07.374Z,31.43
2019-04-16T07:51:01.816Z,30.48
2019-04-16T07:51:59.949Z,30.27
2019-04-16T07:53:52.721Z,30.37
2019-04-16T07:54:52.571Z,30.83
2019-04-16T07:56:45.386Z,30.94
2019-04-16T07:57:45.184Z,31.03
2019-04-16T07:59:37.890Z,30.93
2019-04-16T08:00:41.378Z,31.65
2019-04-16T08:02:30.521Z,32.54
2019-04-16T08:03:30.411Z,32.17
2019-04-16T08:05:23.124Z,32.26
2019-04-16T08:06:23.004Z,31.88
2019-04-16T08:08:15.705Z,31.51
2019-04-16T08:09:15.582Z,31.78
2019-04-16T08:11:08.504Z,32.73
2019-04-16T08:12:22.088Z,33.02
2019-04-16T08:14:00.888Z,33.28
2019-04-16T08:15:12.656Z,34.51
2019-04-16T08:16:53.450Z,35.55
2019-04-16T08:17:53.355Z,35.91
2019-04-16T08:19:49.014Z,36.95
2019-04-16T08:20:59.982Z,37.34
2019-04-16T08:22:40.092Z,38.56
2019-04-16T08:23:39.336Z,38.66
2019-04-16T08:25:34.041Z,39.77
2019-04-16T08:26:31.101Z,40.64
2019-04-16T08:28:23.803Z,41.86
2019-04-16T08:29:26.385Z,41.48
2019-04-16T08:31:16.365Z,42.41
2019-04-16T08:32:16.988Z,42.70
2019-04-16T08:34:09.099Z,43.47
2019-04-16T08:35:08.832Z,43.18
2019-04-16T08:37:01.515Z,44.52
2019-04-16T08:38:01.417Z,44.52
2019-04-16T08:39:54.136Z,43.92
2019-04-16T08:40:54.002Z,44.21
2019-04-16T08:42:47.204Z,45.45
2019-04-16T08:43:47.112Z,45.45
2019-04-16T08:45:40.024Z,45.07
2019-04-16T08:46:40.302Z,44.88
2019-04-16T08:48:32.393Z,44.81
2019-04-16T08:49:32.273Z,45.00
2019-04-16T08:51:30.863Z,44.79
2019-04-16T08:52:24.850Z,45.19
2019-04-16T08:54:18.767Z,44.69
2019-04-16T08:55:17.558Z,43.95
2019-04-16T08:57:10.135Z,44.62
2019-04-16T08:58:12.668Z,44.71
2019-04-16T09:00:02.710Z,44.62
2019-04-16T09:01:02.621Z,44.62
2019-04-16T09:02:57.821Z,44.13
2019-04-16T09:03:55.195Z,45.76
2019-04-16T09:05:47.926Z,43.08
2019-04-16T09:06:47.766Z,43.85
2019-04-16T09:08:40.502Z,43.76
2019-04-16T09:09:40.380Z,44.13
2019-04-16T09:11:35.554Z,44.33
2019-04-16T09:12:33.025Z,43.37
2019-04-16T09:14:26.074Z,44.43
2019-04-16T09:15:27.298Z,44.13
2019-04-16T09:17:18.359Z,44.93
2019-04-16T09:18:18.155Z,43.77
2019-04-16T09:20:10.898Z,43.49
2019-04-16T09:21:11.698Z,43.77
2019-04-16T09:23:03.448Z,44.23
2019-04-16T09:24:08.550Z,44.64
2019-04-16T09:26:10.622Z,45.02
2019-04-16T09:26:56.455Z,45.02
2019-04-16T09:28:48.609Z,44.93
2019-04-16T09:29:48.682Z,44.16
2019-04-16T09:31:41.286Z,44.26
2019-04-16T09:32:41.180Z,44.37
2019-04-16T09:34:35.625Z,43.60
2019-04-16T09:35:33.749Z,43.23
2019-04-16T09:37:28.651Z,43.03
2019-04-16T09:38:26.317Z,42.17
2019-04-16T09:40:19.028Z,42.74
2019-04-16T09:41:18.871Z,43.32
2019-04-16T09:43:17.773Z,42.94
2019-04-16T09:44:11.439Z,42.65
2019-04-16T09:46:10.584Z,43.70
2019-04-16T09:47:05.348Z,43.41
2019-04-16T09:48:56.698Z,43.41
2019-04-16T09:49:56.581Z,43.41
2019-04-16T09:51:50.359Z,43.44
2019-04-16T09:52:49.154Z,42.65
2019-04-16T09:54:44.455Z,42.46
2019-04-16T09:55:42.781Z,43.41
2019-04-16T09:57:35.483Z,43.51
2019-04-16T09:58:37.758Z,43.90
2019-04-16T10:00:28.041Z,43.32
2019-04-16T10:01:27.925Z,42.57
2019-04-16T10:03:20.644Z,43.24
2019-04-16T10:04:20.515Z,42.96
2019-04-16T10:06:13.577Z,42.19
2019-04-16T10:07:13.129Z,42.96
2019-04-16T10:09:05.815Z,41.80
2019-04-16T10:10:05.669Z,41.44
2019-04-16T10:11:58.365Z,41.04
2019-04-16T10:12:58.248Z,40.94
2019-04-16T10:14:50.951Z,41.04
2019-04-16T10:15:50.830Z,42.19
2019-04-16T10:17:43.522Z,42.10
2019-04-16T10:18:43.383Z,43.05
2019-04-16T10:20:36.084Z,43.05
2019-04-16T10:21:35.958Z,43.05
2019-04-16T10:23:28.677Z,42.96
2019-04-16T10:24:28.570Z,43.07
2019-04-16T10:26:21.401Z,41.93
2019-04-16T10:27:21.113Z,42.98
2019-04-16T10:29:13.820Z,41.44
2019-04-16T10:30:13.698Z,42.21
2019-04-16T10:32:06.392Z,41.23
2019-04-16T10:33:06.352Z,41.13
2019-04-16T10:34:58.956Z,41.13
2019-04-16T10:36:01.040Z,42.29
2019-04-16T10:37:51.522Z,41.90
2019-04-16T10:38:51.448Z,41.52
2019-04-16T10:40:44.129Z,42.10
2019-04-16T10:41:43.995Z,41.52
2019-04-16T10:43:44.322Z,42.96
2019-04-16T10:44:36.718Z,42.47
2019-04-16T10:46:29.360Z,43.46
2019-04-16T10:47:29.267Z,43.17
2019-04-16T10:49:21.981Z,42.40
2019-04-16T10:50:21.821Z,42.02
2019-04-16T10:52:14.501Z,42.50
2019-04-16T10:53:14.397Z,42.69
2019-04-16T10:55:09.348Z,43.07
2019-04-16T10:56:07.095Z,42.60
2019-04-16T10:57:59.747Z,42.40
2019-04-16T10:58:59.731Z,41.73
2019-04-16T11:00:52.462Z,42.40
2019-04-16T11:01:52.271Z,41.93
2019-04-16T11:03:45.021Z,42.02
2019-04-16T11:04:44.859Z,42.21
2019-04-16T11:06:37.574Z,42.60
2019-04-16T11:07:37.502Z,42.50
2019-04-16T11:09:30.209Z,42.30
2019-04-16T11:10:30.058Z,42.50
2019-04-16T11:12:22.842Z,42.21
2019-04-16T11:13:22.663Z,41.44
2019-04-16T11:15:15.396Z,42.50
2019-04-16T11:16:15.244Z,42.60
2019-04-16T11:18:07.960Z,42.69
2019-04-16T11:19:07.820Z,41.73
2019-04-16T11:21:00.537Z,42.11
2019-04-16T11:22:03.909Z,42.04
2019-04-16T11:23:53.562Z,42.33
2019-04-16T11:24:53.451Z,41.94
2019-04-16T11:26:46.144Z,41.56
2019-04-16T11:27:46.022Z,40.99
2019-04-16T11:29:42.009Z,40.62
2019-04-16T11:30:38.633Z,40.81
2019-04-16T11:32:31.317Z,40.05
2019-04-16T11:33:31.179Z,39.76
2019-04-16T11:35:23.869Z,40.52
2019-04-16T11:36:23.761Z,41.10
2019-04-16T11:38:17.751Z,40.91
2019-04-16T11:39:16.436Z,40.52
2019-04-16T11:41:09.035Z,41.10
2019-04-16T11:42:08.924Z,40.83
2019-04-16T11:44:14.228Z,38.79
2019-04-16T11:45:01.505Z,39.08
2019-04-16T11:46:54.174Z,39.56
2019-04-16T11:47:54.162Z,39.37
2019-04-16T11:49:46.753Z,38.99
2019-04-16T11:50:46.625Z,38.79
2019-04-16T11:52:40.035Z,39.47
2019-04-16T11:53:39.215Z,39.37
2019-04-16T11:55:33.004Z,39.39
2019-04-16T11:56:32.905Z,39.78
2019-04-16T11:58:25.652Z,39.29
2019-04-16T11:59:25.578Z,39.20
2019-04-16T12:01:18.227Z,40.06
2019-04-16T12:02:18.098Z,39.39
2019-04-16T12:04:14.886Z,38.81
2019-04-16T12:05:10.661Z,37.85
2019-04-16T12:07:05.602Z,38.70
2019-04-16T12:08:03.286Z,38.79
2019-04-16T12:09:55.961Z,39.28
2019-04-16T12:10:55.867Z,38.70
2019-04-16T12:12:48.653Z,39.11
2019-04-16T12:13:48.539Z,39.01
2019-04-16T12:15:41.112Z,38.53
2019-04-16T12:16:41.041Z,38.72
2019-04-16T12:18:33.767Z,39.20
2019-04-16T12:19:33.667Z,39.58
2019-04-16T12:21:26.331Z,38.91
2019-04-16T12:22:26.222Z,39.20
2019-04-16T12:24:19.076Z,37.85
2019-04-16T12:25:18.896Z,37.95
2019-04-16T12:27:11.609Z,38.24
2019-04-16T12:28:12.686Z,38.62
2019-04-16T12:30:04.161Z,39.51
2019-04-16T12:31:04.079Z,39.51
2019-04-16T12:32:56.829Z,39.51
2019-04-16T12:33:56.746Z,38.45
2019-04-16T12:35:49.406Z,38.07
2019-04-16T12:36:49.278Z,38.64
2019-04-16T12:38:42.110Z,37.77
2019-04-16T12:39:41.842Z,38.26
2019-04-16T12:41:34.635Z,37.87
2019-04-16T12:42:34.592Z,37.68
2019-04-16T12:44:27.268Z,37.30
2019-04-16T12:45:27.107Z,37.99
2019-04-16T12:47:19.775Z,38.56
2019-04-16T12:48:19.730Z,37.32
2019-04-16T12:50:16.481Z,36.25
2019-04-16T12:51:12.826Z,35.28
2019-04-16T12:53:05.576Z,35.18
2019-04-16T12:54:05.663Z,35.47
2019-04-16T12:55:58.277Z,35.28
2019-04-16T12:56:57.953Z,35.38
2019-04-16T12:58:51.373Z,35.87
2019-04-16T12:59:54.663Z,35.30
2019-04-16T13:01:43.314Z,35.49
2019-04-16T13:02:44.853Z,35.87
2019-04-16T13:04:35.843Z,34.91
2019-04-16T13:05:35.739Z,34.91
2019-04-16T13:07:28.498Z,34.43
2019-04-16T13:08:28.446Z,33.18
2019-04-16T13:10:21.074Z,33.37
2019-04-16T13:11:21.064Z,33.85
2019-04-16T13:13:14.218Z,33.95
2019-04-16T13:14:14.066Z,33.47
2019-04-16T13:16:06.769Z,34.53
2019-04-16T13:17:06.656Z,35.39
2019-04-16T13:18:59.356Z,35.39
2019-04-16T13:19:59.245Z,34.23
2019-04-16T13:21:51.915Z,34.16
2019-04-16T13:22:51.807Z,34.33
2019-04-16T13:24:44.523Z,33.28
2019-04-16T13:25:44.437Z,33.56
2019-04-16T13:27:37.093Z,33.75
2019-04-16T13:28:37.015Z,33.45
2019-04-16T13:30:29.677Z,33.93
2019-04-16T13:31:29.554Z,33.93
2019-04-16T13:33:22.247Z,33.74
2019-04-16T13:34:22.132Z,32.78
2019-04-16T13:36:14.832Z,33.07
2019-04-16T13:37:14.711Z,32.59
2019-04-16T13:39:07.412Z,33.45
2019-04-16T13:40:07.293Z,34.14
2019-04-16T13:41:59.969Z,34.72
2019-04-16T13:43:01.529Z,34.14
2019-04-16T13:44:52.564Z,34.33
2019-04-16T13:45:52.460Z,34.06
2019-04-16T13:47:45.127Z,34.25
2019-04-16T13:48:45.020Z,34.16
2019-04-16T13:50:40.741Z,34.35
2019-04-16T13:51:37.590Z,34.25
2019-04-16T13:53:30.268Z,33.97
2019-04-16T13:54:34.116Z,33.39
2019-04-16T13:56:22.876Z,33.67
2019-04-16T13:57:22.747Z,34.06
2019-04-16T13:59:15.432Z,33.20
2019-04-16T14:00:15.334Z,33.29
2019-04-16T14:02:08.024Z,33.48
2019-04-16T14:03:07.905Z,33.97
2019-04-16T14:05:04.579Z,32.62
2019-04-16T14:06:00.481Z,32.71
2019-04-16T14:07:53.175Z,33.20
2019-04-16T14:08:53.057Z,33.77
2019-04-16T14:10:45.762Z,34.06
2019-04-16T14:11:45.641Z,33.67
2019-04-16T14:13:38.319Z,33.39
2019-04-16T14:14:38.220Z,33.77
2019-04-16T14:16:30.913Z,34.45
2019-04-16T14:17:30.787Z,34.92
2019-04-16T14:19:23.482Z,34.92
2019-04-16T14:20:23.381Z,34.74
2019-04-16T14:22:16.078Z,34.66
2019-04-16T14:23:15.964Z,34.94
2019-04-16T14:25:08.878Z,34.17
2019-04-16T14:26:08.528Z,34.27
2019-04-16T14:28:03.101Z,33.59
2019-04-16T14:29:05.540Z,33.97
2019-04-16T14:30:53.790Z,33.58
2019-04-16T14:31:53.697Z,33.67
2019-04-16T14:33:46.389Z,34.45
2019-04-16T14:34:46.270Z,34.92
2019-04-16T14:36:38.980Z,35.22
2019-04-16T14:37:38.855Z,35.31
2019-04-16T14:39:31.534Z,34.91
2019-04-16T14:40:31.436Z,35.30
2019-04-16T14:42:24.163Z,35.87
2019-04-16T14:43:29.198Z,35.70
2019-04-16T14:45:16.696Z,35.89
2019-04-16T14:46:16.588Z,36.08
2019-04-16T14:48:10.213Z,36.25
2019-04-16T14:49:09.175Z,36.37
2019-04-16T14:51:01.857Z,35.89
2019-04-16T14:52:03.160Z,36.08
2019-04-16T14:53:54.448Z,35.79
2019-04-16T14:54:54.324Z,35.99
2019-04-16T14:56:47.022Z,35.89
2019-04-16T14:57:46.906Z,36.37
2019-04-16T14:59:39.589Z,35.89
2019-04-16T15:00:39.491Z,36.08
2019-04-16T15:02:32.189Z,35.79
2019-04-16T15:03:32.062Z,35.79
2019-04-16T15:05:24.744Z,36.37
2019-04-16T15:06:24.648Z,35.99
2019-04-16T15:08:17.346Z,35.79
2019-04-16T15:09:17.223Z,36.56
2019-04-16T15:11:09.926Z,36.56
2019-04-16T15:12:09.802Z,36.56
2019-04-16T15:14:02.498Z,35.89
2019-04-16T15:15:02.389Z,36.56
2019-04-16T15:16:55.067Z,36.56
2019-04-16T15:17:54.958Z,36.66
2019-04-16T15:19:47.664Z,36.95
2019-04-16T15:20:47.536Z,37.43
2019-04-16T15:22:40.221Z,36.76
2019-04-16T15:23:40.118Z,36.76
2019-04-16T15:25:32.825Z,37.52
2019-04-16T15:26:32.692Z,37.43
2019-04-16T15:28:25.886Z,36.27
2019-04-16T15:29:25.817Z,35.89
2019-04-16T15:31:18.481Z,36.08
2019-04-16T15:32:18.375Z,35.89
2019-04-16T15:34:11.349Z,37.52
2019-04-16T15:35:13.864Z,36.95
2019-04-16T15:37:03.631Z,37.43
2019-04-16T15:38:03.514Z,37.24
2019-04-16T15:39:59.250Z,37.62
2019-04-16T15:40:56.088Z,37.43
2019-04-16T15:42:49.046Z,37.14
2019-04-16T15:43:50.886Z,37.14
2019-04-16T15:45:41.359Z,37.52
2019-04-16T15:46:41.912Z,37.24
2019-04-16T15:48:33.984Z,37.24
2019-04-16T15:49:33.865Z,37.62
2019-04-16T15:51:26.569Z,37.62
2019-04-16T15:52:26.448Z,38.01
2019-04-16T15:54:19.121Z,37.91
2019-04-16T15:55:19.021Z,38.29
2019-04-16T15:57:11.721Z,38.18
2019-04-16T15:58:11.603Z,38.56
2019-04-16T16:00:04.650Z,37.12
2019-04-16T16:01:04.259Z,37.51
2019-04-16T16:02:57.160Z,38.66
2019-04-16T16:03:56.983Z,38.85
2019-04-16T16:05:49.508Z,38.66
2019-04-16T16:06:52.182Z,38.76
2019-04-16T16:08:42.109Z,38.18
2019-04-16T16:09:41.989Z,38.28
2019-04-16T16:11:34.687Z,37.70
2019-04-16T16:12:34.578Z,38.56
2019-04-16T16:14:33.027Z,38.20
2019-04-16T16:15:27.153Z,38.56
2019-04-16T16:17:22.636Z,38.76
2019-04-16T16:18:19.733Z,38.87
2019-04-16T16:20:12.435Z,37.99
2019-04-16T16:21:12.318Z,38.66
2019-04-16T16:23:05.014Z,38.78
2019-04-16T16:24:07.595Z,38.78
2019-04-16T16:25:57.580Z,38.56
2019-04-16T16:26:57.495Z,38.66
2019-04-16T16:28:50.176Z,38.18
2019-04-16T16:29:50.060Z,37.99
2019-04-16T16:31:42.746Z,38.76
2019-04-16T16:32:42.665Z,38.66
2019-04-16T16:34:35.340Z,38.76
2019-04-16T16:35:35.330Z,39.24
2019-04-16T16:37:27.902Z,38.74
2019-04-16T16:38:27.803Z,38.26
2019-04-16T16:40:20.497Z,38.64
2019-04-16T16:41:20.376Z,38.54
2019-04-16T16:43:14.256Z,39.22
2019-04-16T16:44:12.971Z,39.03
2019-04-16T16:46:05.646Z,39.31
2019-04-16T16:47:05.537Z,38.74
2019-04-16T16:48:58.239Z,38.64
2019-04-16T16:49:58.108Z,38.64
2019-04-16T16:51:50.791Z,38.16
2019-04-16T16:52:50.684Z,38.54
2019-04-16T16:54:43.423Z,38.84
2019-04-16T16:55:43.278Z,39.31
2019-04-16T16:57:35.936Z,39.03
2019-04-16T16:58:35.844Z,39.12
2019-04-16T17:00:28.533Z,39.61
2019-04-16T17:01:33.651Z,40.28
2019-04-16T17:03:21.097Z,39.61
2019-04-16T17:04:20.994Z,39.31
2019-04-16T17:06:13.691Z,39.41
2019-04-16T17:07:17.379Z,39.22
2019-04-16T17:09:06.252Z,38.54
2019-04-16T17:10:06.149Z,38.64
2019-04-16T17:11:59.044Z,38.93
2019-04-16T17:12:58.722Z,38.72
2019-04-16T17:14:51.430Z,39.20
2019-04-16T17:15:51.315Z,39.11
2019-04-16T17:17:43.971Z,40.25
2019-04-16T17:18:45.480Z,40.35
2019-04-16T17:20:38.417Z,40.16
2019-04-16T17:21:36.444Z,40.55
2019-04-16T17:23:29.132Z,39.78
2019-04-16T17:24:29.026Z,39.58
2019-04-16T17:26:21.730Z,39.87
2019-04-16T17:27:21.605Z,40.14
2019-04-16T17:29:14.306Z,40.62
2019-04-16T17:30:14.253Z,40.52
2019-04-16T17:32:07.081Z,41.00
2019-04-16T17:33:06.769Z,40.81
2019-04-16T17:34:59.715Z,41.00
2019-04-16T17:35:59.346Z,40.89
2019-04-16T17:37:52.059Z,41.46
2019-04-16T17:38:51.978Z,41.27
2019-04-16T17:40:44.638Z,42.33
2019-04-16T17:41:44.518Z,42.13
2019-04-16T17:43:37.220Z,41.56
2019-04-16T17:44:37.116Z,42.23
2019-04-16T17:46:29.815Z,41.94
2019-04-16T17:47:32.527Z,41.85
2019-04-16T17:49:22.374Z,41.93
2019-04-16T17:50:22.260Z,42.11
2019-04-16T17:52:14.953Z,42.40
2019-04-16T17:53:16.073Z,42.50
2019-04-16T17:55:07.524Z,42.40
2019-04-16T17:56:07.417Z,42.69
2019-04-16T17:58:00.103Z,43.07
2019-04-16T17:58:59.988Z,42.69
2019-04-16T18:00:52.671Z,43.07
2019-04-16T18:01:52.557Z,43.65
2019-04-16T18:03:45.243Z,42.98
2019-04-16T18:04:45.546Z,43.17
2019-04-16T18:06:37.802Z,43.24
2019-04-16T18:07:37.690Z,43.15
2019-04-16T18:09:30.393Z,43.15
2019-04-16T18:10:33.716Z,43.73
2019-04-16T18:12:22.944Z,43.53
2019-04-16T18:13:22.843Z,43.34
2019-04-16T18:15:15.621Z,43.34
2019-04-16T18:16:16.697Z,43.82
2019-04-16T18:18:08.116Z,43.82
2019-04-16T18:19:08.019Z,43.73
2019-04-16T18:21:00.681Z,43.82
2019-04-16T18:22:04.275Z,44.09
2019-04-16T18:23:53.252Z,43.90
2019-04-16T18:24:53.570Z,44.47
2019-04-16T18:26:45.821Z,43.80
2019-04-16T18:27:45.694Z,44.47
2019-04-16T18:29:38.381Z,44.37
2019-04-16T18:30:38.264Z,44.37
2019-04-16T18:32:31.784Z,44.76
2019-04-16T18:33:30.837Z,44.47
2019-04-16T18:35:23.525Z,44.95
2019-04-16T18:36:23.438Z,44.76
2019-04-16T18:38:16.152Z,44.54
2019-04-16T18:39:15.974Z,45.12
2019-04-16T18:41:08.682Z,44.93
2019-04-16T18:42:08.559Z,44.93
2019-04-16T18:44:01.236Z,45.12
2019-04-16T18:45:01.130Z,44.93
2019-04-16T18:46:53.814Z,44.73
2019-04-16T18:48:02.737Z,45.12
2019-04-16T18:49:46.366Z,45.40
2019-04-16T18:50:46.261Z,45.89
2019-04-16T18:52:38.959Z,46.08
2019-04-16T18:53:40.306Z,45.31
2019-04-16T18:55:31.511Z,45.21
2019-04-16T18:56:31.402Z,45.31
2019-04-16T18:58:24.086Z,45.79
2019-04-16T18:59:23.972Z,46.05
2019-04-16T19:01:16.655Z,45.86
2019-04-16T19:02:16.567Z,46.05
2019-04-16T19:04:09.345Z,46.34
2019-04-16T19:05:09.121Z,46.34
2019-04-16T19:07:01.810Z,46.82
2019-04-16T19:08:01.693Z,47.30
2019-04-16T19:09:54.371Z,47.30
2019-04-16T19:10:54.258Z,47.01
2019-04-16T19:12:46.965Z,46.72
2019-04-16T19:13:46.829Z,47.30
2019-04-16T19:15:39.499Z,47.39
2019-04-16T19:16:39.393Z,47.30
2019-04-16T19:18:32.076Z,47.11
2019-04-16T19:19:31.965Z,47.49
2019-04-16T19:21:24.629Z,47.66
2019-04-16T19:22:24.522Z,47.27
2019-04-16T19:24:17.210Z,47.75
2019-04-16T19:25:17.100Z,48.33
2019-04-16T19:27:09.776Z,47.37
2019-04-16T19:28:09.649Z,48.04
2019-04-16T19:30:02.332Z,47.94
2019-04-16T19:31:02.241Z,48.23
2019-04-16T19:33:00.246Z,48.23
2019-04-16T19:33:54.789Z,47.75
2019-04-16T19:35:50.864Z,47.66
2019-04-16T19:36:47.378Z,47.75
2019-04-16T19:38:40.730Z,48.13
2019-04-16T19:39:39.918Z,48.71
2019-04-16T19:41:32.624Z,48.52
2019-04-16T19:42:32.492Z,47.85
2019-04-16T19:44:25.203Z,48.90
2019-04-16T19:45:25.081Z,48.13
2019-04-16T19:47:17.773Z,48.13
2019-04-16T19:48:19.667Z,48.61
2019-04-16T19:50:10.322Z,48.52
2019-04-16T19:51:10.214Z,48.68
2019-04-16T19:53:02.906Z,48.78
2019-04-16T19:54:02.777Z,48.88
2019-04-16T19:55:55.620Z,48.88
2019-04-16T19:56:55.345Z,48.88
2019-04-16T19:58:48.154Z,48.97
2019-04-16T19:59:47.905Z,49.16
2019-04-16T20:01:40.600Z,49.84
2019-04-16T20:02:40.480Z,49.55
2019-04-16T20:04:33.177Z,49.55
2019-04-16T20:05:33.053Z,49.55
2019-04-16T20:07:25.757Z,49.84
2019-04-16T20:08:25.620Z,50.70
2019-04-16T20:10:18.301Z,50.41
2019-04-16T20:11:21.431Z,50.70
2019-04-16T20:13:10.889Z,50.41
2019-04-16T20:14:10.765Z,51.05
2019-04-16T20:16:03.446Z,50.67
2019-04-16T20:17:03.335Z,50.95
2019-04-16T20:18:56.129Z,51.05
2019-04-16T20:19:55.912Z,51.34
2019-04-16T20:21:48.573Z,51.62
2019-04-16T20:22:48.470Z,51.91
2019-04-16T20:24:41.169Z,51.72
2019-04-16T20:25:41.040Z,51.72
2019-04-16T20:27:36.219Z,51.62
2019-04-16T20:28:33.605Z,52.20
2019-04-16T20:30:26.297Z,52.48
2019-04-16T20:31:26.175Z,52.87
2019-04-16T20:33:18.853Z,53.16
2019-04-16T20:34:18.731Z,53.03
2019-04-16T20:36:11.400Z,53.13
2019-04-16T20:37:11.309Z,53.51
2019-04-16T20:39:03.979Z,53.03
2019-04-16T20:40:03.974Z,53.32
2019-04-16T20:41:59.262Z,53.61
2019-04-16T20:42:56.416Z,53.32
2019-04-16T20:44:49.113Z,53.22
2019-04-16T20:45:48.994Z,53.41
2019-04-16T20:47:41.670Z,54.27
2019-04-16T20:48:41.846Z,54.66
2019-04-16T20:50:34.257Z,55.13
2019-04-16T20:51:34.131Z,54.94
2019-04-16T20:53:26.799Z,55.23
2019-04-16T20:54:26.690Z,55.04
2019-04-16T20:56:20.697Z,55.40
2019-04-16T20:57:19.766Z,55.87
2019-04-16T20:59:12.434Z,56.25
2019-04-16T21:00:12.312Z,56.45
2019-04-16T21:02:04.988Z,55.77
2019-04-16T21:03:04.912Z,56.06
2019-04-16T21:05:01.664Z,56.45
2019-04-16T21:05:59.659Z,56.92
2019-04-16T21:07:50.131Z,57.50
2019-04-16T21:08:49.999Z,57.31
2019-04-16T21:10:42.690Z,57.85
2019-04-16T21:11:42.565Z,57.97
2019-04-16T21:13:35.232Z,58.45
2019-04-16T21:14:35.121Z,58.33
2019-04-16T21:16:27.956Z,58.61
2019-04-16T21:17:27.679Z,59.22
2019-04-16T21:19:23.207Z,58.99
2019-04-16T21:20:20.657Z,59.19
2019-04-16T21:22:12.934Z,59.56
2019-04-16T21:23:12.811Z,61.10
2019-04-16T21:25:05.497Z,61.19
2019-04-16T21:26:05.368Z,61.00
2019-04-16T21:27:58.049Z,61.66
2019-04-16T21:28:58.609Z,61.00
2019-04-16T21:30:50.666Z,61.76
2019-04-16T21:31:50.511Z,61.76
2019-04-16T21:33:43.329Z,62.05
2019-04-16T21:34:43.078Z,62.05
2019-04-16T21:36:36.991Z,62.43
2019-04-16T21:37:35.640Z,62.15
2019-04-16T21:39:28.313Z,62.15
2019-04-16T21:40:28.200Z,62.05
2019-04-16T21:42:20.990Z,62.24
2019-04-16T21:43:20.865Z,61.47
2019-04-16T21:45:16.243Z,61.29
2019-04-16T21:46:13.433Z,61.00
2019-04-16T21:48:06.140Z,61.38
2019-04-16T21:49:08.570Z,61.95
2019-04-16T21:50:58.694Z,61.76
2019-04-16T21:51:58.562Z,61.86
2019-04-16T21:53:51.234Z,61.44
2019-04-16T21:54:51.127Z,61.63
2019-04-16T21:56:43.814Z,62.24
2019-04-16T21:57:46.103Z,62.30
2019-04-16T21:59:36.378Z,62.59
